Create Custom Reports and Graphics: Custom Report

Chair 1 Top

Current Conditions

12/1/22 10:30 PM (-08:00)
Updated Every 15 Minutes
Temp 17.5 °F   1.0
WindChill 0.2 °F   2.3
RH 94 %   9
Dew Pt 16.0 °F   1.2
Wet Bulb 17.0 °F   0.4
Wind Dir SSE | 168 °
Wind Spd 22.1 mph   13.7
Wind Gust 56.9 mph   1.9
Daily Max Wind 64.7 mph   3.0
Time of Max Wind 0203
Max Wind Dir S | 178 °
Daily Min Temp 15.8 °F   2.5
Time of Min Temp 0544
Daily Max Temp 20.0 °F   7.4
Time of Max Temp 0035
Yest MinT 18.3 °F
Yest MaxT 27.4 °F
Yest MaxGst 61.7 mph
Calm: 0.0%
Calm: 0.1%

Last 7 Days

Chair 1 Top

Hourly Data | America/Los_Angeles
as of 12/1/22 10:30 PM PST
Date & Time Temp (°F) WindChill (°F) RH (%) Dew Pt (°F) Wet Bulb (°F) Wind Dir (°) Wind Spd (mph) Wind Gust (mph) Wind Gst Dir (°) Daily Min Temp (°F) Daily Max Temp (°F) Daily Max Wind (mph)
12/1/22 - 2200 19.3 1.5 94 18.0 18.8 SE | 128 25.6 62.9 SE | 132 15.8 20.0 64.7
12/1/22 - 2100 19.3 2.6 95 18.0 18.8 SSE | 156 22.1 52.7 SW | 221 15.8 20.0 64.7
12/1/22 - 2000 18.7 2.1 94 17.3 18.3 SSE | 156 21.4 52.5 SSW | 200 15.8 20.0 64.7
12/1/22 - 1900 18.2 0.9 93 16.6 17.7 S | 181 22.8 55.9 SW | 218 15.8 20.0 64.7
12/1/22 - 1800 18.3 0.7 94 16.8 17.8 S | 179 23.9 60.7 S | 189 15.8 20.0 64.7
12/1/22 - 1700 18.6 1.5 94 17.0 18.1 S | 188 22.4 61.7 SW | 217 15.8 20.0 64.7
12/1/22 - 1600 18.5 1.7 94 17.0 18.0 S | 181 21.6 51.4 SW | 216 15.8 20.0 64.7
12/1/22 - 1500 18.3 3.2 94 17.0 17.9 SE | 141 16.9 54.2 SSW | 196 15.8 20.0 64.7
12/1/22 - 1400 18.5 4.0 94 17.1 18.1 SSE | 162 15.7 40.8 ESE | 111 15.8 20.0 64.7
12/1/22 - 1300 18.7 5.2 94 17.4 18.3 SSE | 160 13.8 33.2 NNW | 339 15.8 20.0 64.7
12/1/22 - 1200 18.8 3.8 94 17.4 18.3 SE | 130 16.9 36.5 ENE | 62 15.8 20.0 64.7
12/1/22 - 1100 18.1 4.0 94 16.7 17.7 S | 170 14.5 30.3 ENE | 71 15.8 20.0 64.7
12/1/22 - 1000 18.1 3.9 94 16.6 17.6 SSE | 158 14.7 51.7 WNW | 287 15.8 20.0 64.7
12/1/22 - 0900 17.7 4.2 94 16.2 17.2 S | 186 13.0 30.2 W | 273 15.8 20.0 64.7
12/1/22 - 0800 17.3 0.8 93 15.8 16.9 SW | 231 20.0 52.6 WNW | 283 15.8 20.0 64.7
12/1/22 - 0700 16.9 0.9 93 15.2 16.4 SSW | 197 18.2 47.7 W | 281 15.8 20.0 64.7
12/1/22 - 0600 16.6 -0.1 91 14.3 16.0 SSW | 199 19.6 53.2 SSE | 164 15.8 20.0 64.7
12/1/22 - 0500 18.9 4.1 73 11.5 17.0 S | 184 16.4 46.8 W | 275 17.5 20.0 64.7
12/1/22 - 0400 19.6 5.2 67 10.3 17.3 SE | 142 16.1 45.0 SSW | 193 18.7 20.0 64.7
12/1/22 - 0300 19.1 2.5 70 10.8 17.0 S | 177 21.5 64.7 S | 178 18.7 20.0 64.7
12/1/22 - 0200 18.9 1.9 69 10.5 16.8 SSE | 159 22.7 61.9 S | 171 18.7 20.0 62.2
12/1/22 - 0100 19.4 2.7 73 12.0 17.4 S | 178 22.1 62.2 S | 171 19.0 20.0 62.2
12/1/22 - 0000 19.2 -0.0 78 13.4 17.6 SSW | 204 30.7 61.0 SSW | 211 18.3 27.4 61.7
11/30/22 - 2300 18.7 -1.3 83 14.5 17.6 SSW | 198 33.5 61.4 SSW | 207 18.3 27.4 61.7
11/30/22 - 2200 19.3 1.2 79 13.8 17.8 SSW | 203 26.7 61.7 S | 187 18.8 27.4 61.7
11/30/22 - 2100 19.1 1.8 78 13.5 17.6 SSW | 198 23.8 49.1 S | 191 18.8 27.4 59.2
11/30/22 - 2000 19.4 4.1 77 13.4 17.8 SSW | 198 18.2 59.2 SSW | 206 18.9 27.4 59.2
11/30/22 - 1900 19.7 3.4 75 13.2 18.0 SSW | 207 21.3 56.2 SW | 230 19.4 27.4 56.2
11/30/22 - 1800 20.8 6.0 71 12.9 18.7 S | 184 18.0 49.0 SSW | 202 19.9 27.4 52.0
11/30/22 - 1700 22.6 9.5 58 10.0 19.4 S | 188 15.2 46.4 SSW | 206 21.4 27.4 52.0
11/30/22 - 1600 23.8 11.7 55 10.0 20.2 SW | 222 13.6 35.5 SW | 217 21.4 27.4 52.0
11/30/22 - 1500 24.6 11.7 52 9.3 20.6 SSW | 201 16.1 52.0 SSW | 203 21.4 27.4 52.0
11/30/22 - 1400 26.1 13.2 40 4.7 20.9 SSW | 192 17.4 41.2 S | 185 21.4 27.4 48.1
11/30/22 - 1300 26.5 14.8 30 -0.7 20.4 S | 186 14.2 43.0 SE | 146 21.4 27.4 48.1
11/30/22 - 1200 26.7 14.6 25 -4.8 20.1 SSW | 208 15.4 48.1 W | 273 21.4 27.4 48.1
11/30/22 - 1100 26.7 15.5 23 -6.4 19.9 SSW | 193 13.4 41.8 S | 175 21.4 27.4 45.5
11/30/22 - 1000 25.2 13.1 24 -6.5 18.8 S | 190 14.4 36.9 SSE | 164 21.4 27.2 45.5
11/30/22 - 0900 23.6 11.7 29 -3.9 18.0 S | 171 13.1 42.1 SW | 216 21.4 27.2 45.5
11/30/22 - 0800 22.2 9.2 38 0.4 17.5 SSW | 210 14.6 36.3 SSE | 164 21.4 27.2 45.5
11/30/22 - 0700 21.6 7.0 40 1.2 17.2 SW | 226 18.2 34.2 WNW | 287 21.4 27.2 45.5
11/30/22 - 0600 21.9 4.7 37 -0.2 17.2 SW | 218 26.5 38.9 SSW | 211 21.5 27.2 45.5
11/30/22 - 0500 22.5 7.9 33 -2.0 17.4 SW | 216 18.9 34.7 S | 187 21.9 27.2 45.5
11/30/22 - 0400 23.6 10.7 29 -4.2 18.0 SSW | 208 15.4 32.3 SSW | 208 22.7 27.2 45.5
11/30/22 - 0300 26.3 13.6 29 -1.3 20.2 SSW | 206 16.7 44.9 SW | 219 25.1 27.2 45.5
11/30/22 - 0200 26.5 11.8 30 -0.8 20.4 SSW | 210 23.2 45.5 SW | 217 25.8 27.1 45.5
11/30/22 - 0100 26.1 11.0 30 -1.3 20.1 SSW | 207 24.4 38.7 SSW | 212 25.8 26.5 38.7
11/30/22 - 0000 27.2 9.9 29 -1.2 20.8 SSW | 212 35.4 53.2 SW | 214 20.1 36.5 83.2
11/29/22 - 2300 28.3 11.2 28 -0.6 21.7 SSW | 209 36.6 49.9 SW | 220 20.1 36.5 83.2
11/29/22 - 2200 29.8 15.6 27 0.1 22.8 SSW | 192 26.1 33.5 S | 184 20.1 36.5 83.2
11/29/22 - 2100 30.1 14.8 28 0.9 23.1 S | 191 31.4 41.4 SSW | 197 20.1 36.5 83.2
11/29/22 - 2000 29.3 12.2 29 0.8 22.5 SSW | 196 39.0 48.6 SSW | 205 20.1 36.5 83.2
11/29/22 - 1900 28.8 11.5 30 1.3 22.2 SSW | 196 38.8 50.0 S | 183 20.1 36.5 83.2
11/29/22 - 1800 30.6 12.8 26 -0.0 23.3 SSW | 196 46.9 57.5 S | 190 20.1 36.5 83.2
11/29/22 - 1700 31.0 13.5 25 -1.1 23.5 SSW | 195 46.4 55.4 S | 187 20.1 36.5 83.2
11/29/22 - 1600 30.6 13.3 23 -2.4 23.0 SSW | 199 44.2 56.8 SW | 214 20.1 36.5 83.2
11/29/22 - 1500 33.4 22.4 21 -2.4 24.8 SSW | 209 17.9 40.6 SSW | 194 20.1 36.5 83.2
11/29/22 - 1400 34.7 - 18 -4.8 25.5 SSE | 158 2.0 6.9 E | 91 20.1 36.5 83.2
11/29/22 - 1300 32.1 25.0 16 -9.1 23.4 E | 92 8.0 13.6 E | 87 20.1 33.6 83.2
11/29/22 - 1200 30.4 20.5 14 -13.1 21.9 E | 87 12.7 17.5 E | 97 20.1 33.6 83.2
11/29/22 - 1100 31.8 23.6 18 -7.3 23.3 SE | 131 9.6 21.1 E | 101 20.1 33.6 83.2
11/29/22 - 1000 30.0 17.5 16 -10.8 21.8 ESE | 109 19.7 23.7 E | 101 20.1 31.1 83.2
11/29/22 - 0900 28.9 15.9 17 -10.9 21.0 ESE | 102 20.1 25.4 E | 97 20.1 29.8 83.2
11/29/22 - 0800 27.0 16.4 19 -10.3 19.8 E | 83 12.2 19.6 E | 99 20.1 28.6 83.2
11/29/22 - 0700 24.9 - 23 -8.3 18.5 SSE | 161 0.8 5.3 E | 86 20.1 27.4 83.2
11/29/22 - 0600 27.0 15.5 20 -9.3 19.8 WSW | 258 14.0 33.0 W | 264 20.1 27.4 83.2
11/29/22 - 0500 26.8 10.5 19 -9.5 19.7 WSW | 257 29.9 42.9 W | 261 20.1 27.4 83.2
11/29/22 - 0400 26.4 8.5 18 -11.6 19.2 SW | 236 36.7 67.5 WSW | 241 20.1 27.4 83.2
11/29/22 - 0300 26.0 7.1 18 -12.2 19.0 SW | 222 42.2 68.9 SW | 230 20.1 27.4 83.2
11/29/22 - 0200 25.2 4.5 17 -13.4 18.3 SSW | 212 51.6 83.2 SW | 222 20.1 27.4 83.2
11/29/22 - 0100 22.2 -0.4 16 -16.8 15.9 SSW | 208 55.1 82.3 SW | 223 20.1 25.8 82.3
11/29/22 - 0000 21.1 -2.4 18 -15.9 15.1 SSW | 198 58.2 78.8 SSW | 203 16.0 27.7 100.2
11/28/22 - 2300 19.0 -5.0 30 -7.8 14.3 SSW | 202 55.7 67.3 S | 182 16.0 27.7 100.2
11/28/22 - 2200 18.8 -4.8 44 -0.4 15.0 SSW | 206 52.0 64.2 SSW | 210 16.0 27.7 100.2
11/28/22 - 2100 17.0 -8.5 69 8.3 15.0 SSW | 207 59.8 67.5 SW | 217 16.0 27.7 100.2
11/28/22 - 2000 17.1 -8.6 80 12.0 15.8 SSW | 206 61.5 77.2 SSW | 209 16.3 27.7 100.2
11/28/22 - 1900 18.1 -7.1 83 13.6 16.9 SSW | 205 60.6 77.5 SSW | 201 17.4 27.7 100.2
11/28/22 - 1800 19.9 -5.6 75 13.1 18.1 SSW | 210 69.2 92.1 SW | 219 18.3 27.7 100.2
11/28/22 - 1700 19.4 -6.7 93 17.8 18.8 SSW | 211 72.6 91.9 S | 172 18.7 27.7 100.2
11/28/22 - 1600 20.2 -3.9 94 18.7 19.7 SSW | 207 60.6 81.3 SSE | 163 19.8 27.7 100.2
11/28/22 - 1500 21.0 -2.6 89 17.9 20.1 SSW | 203 58.2 85.6 SSW | 206 20.6 27.7 100.2
11/28/22 - 1400 21.4 -3.7 84 17.4 20.1 SSW | 206 71.8 100.2 SSW | 200 20.6 27.7 100.2
11/28/22 - 1300 21.6 -2.1 88 18.4 20.6 SSW | 203 61.3 96.3 SSW | 194 20.6 27.7 96.3
11/28/22 - 1200 21.7 4.4 96 20.6 21.2 SSW | 208 26.9 73.6 WSW | 248 20.6 27.7 80.7
11/28/22 - 1100 21.0 0.3 89 18.1 20.1 SSW | 200 40.9 75.2 SW | 236 20.6 27.7 80.7
11/28/22 - 1000 21.2 -0.1 76 14.9 19.4 SSW | 206 45.1 75.3 S | 190 20.9 27.7 80.7
11/28/22 - 0900 22.1 -0.2 64 11.8 19.3 SSW | 204 53.2 76.2 SW | 224 21.6 27.7 80.7
11/28/22 - 0800 22.6 -0.4 51 7.0 18.8 SSW | 205 59.2 78.6 SSW | 210 22.0 27.7 80.7
11/28/22 - 0700 22.4 1.2 36 -0.9 17.5 SSW | 211 47.1 80.7 SSW | 204 22.0 27.7 80.7
11/28/22 - 0600 23.4 4.5 44 4.8 19.0 SSW | 206 36.4 62.6 SSW | 201 22.4 27.7 73.7
11/28/22 - 0500 24.6 5.5 33 -0.6 19.1 SSW | 198 39.9 69.5 SSW | 205 23.9 27.7 73.7
11/28/22 - 0400 24.8 5.3 22 -8.5 18.4 SSW | 201 43.0 73.7 S | 189 24.5 27.7 73.7
11/28/22 - 0300 25.7 7.5 16 -14.4 18.5 SSW | 204 37.5 70.8 SW | 224 24.8 27.7 70.8
11/28/22 - 0200 26.2 7.5 15 -15.8 18.8 SSW | 205 41.8 67.4 SSW | 204 26.0 27.7 68.4
11/28/22 - 0100 27.0 9.3 14 -15.9 19.4 SSW | 202 37.5 68.4 SW | 220 26.5 27.7 68.4
11/28/22 - 0000 27.9 11.3 14 -15.6 20.1 SSW | 194 33.7 66.8 SW | 228 27.6 36.1 71.9
11/27/22 - 2300 28.6 12.6 15 -12.9 20.7 SSW | 200 31.7 58.1 SSW | 201 28.0 36.1 71.9
11/27/22 - 2200 29.1 11.7 12 -17.7 20.7 SSW | 205 40.6 71.9 SW | 214 28.8 36.1 71.9
11/27/22 - 2100 29.0 10.5 10 -19.9 20.6 SSW | 206 47.6 66.1 SW | 230 28.8 36.1 66.1
11/27/22 - 2000 29.1 10.4 13 -16.1 20.8 SSW | 206 48.2 62.0 SSW | 204 28.8 36.1 64.4
11/27/22 - 1900 29.6 11.6 17 -10.4 21.6 SSW | 205 45.4 62.7 SSW | 207 29.0 36.1 64.4
11/27/22 - 1800 29.4 11.0 32 3.0 22.9 SSW | 205 47.2 63.5 SSW | 212 29.0 36.1 64.4
11/27/22 - 1700 30.5 13.0 37 7.2 24.3 SSW | 205 45.0 57.1 SW | 220 29.8 36.1 64.4
11/27/22 - 1600 32.0 16.0 37 8.8 25.6 SSW | 206 38.9 54.8 SSE | 165 30.2 36.1 64.4
11/27/22 - 1500 34.0 18.6 29 5.0 26.2 SSW | 204 39.4 56.4 SSW | 204 30.2 36.1 64.4
11/27/22 - 1400 33.8 16.7 24 0.6 25.5 SSW | 202 52.0 61.3 SSW | 195 30.2 36.1 64.4
11/27/22 - 1300 34.4 18.2 22 -1.0 25.7 SSW | 205 46.7 64.4 S | 191 30.2 36.1 64.4
11/27/22 - 1200 35.1 20.7 18 -4.1 25.8 SSW | 202 36.4 48.0 WSW | 237 30.2 36.1 48.4
11/27/22 - 1100 35.7 22.6 16 -6.1 26.0 SSW | 198 30.3 41.5 SSW | 213 30.2 36.1 48.4
11/27/22 - 1000 34.7 20.4 15 -8.7 25.1 S | 184 34.7 41.7 W | 272 30.2 35.6 48.4
11/27/22 - 0900 33.0 17.8 14 -10.9 23.8 S | 186 36.2 47.2 SSW | 199 30.2 34.5 48.4
11/27/22 - 0800 32.1 16.3 15 -10.2 23.3 SSW | 196 38.1 48.4 SSW | 195 30.2 34.5 48.4
11/27/22 - 0700 31.9 17.1 16 -8.9 23.2 SSW | 199 31.6 41.7 SSW | 205 30.2 34.4 41.7
11/27/22 - 0600 31.8 17.2 15 -10.2 23.1 S | 191 30.7 41.3 SSW | 212 30.2 34.4 41.3
11/27/22 - 0500 33.1 20.6 13 -11.8 23.8 SW | 214 23.4 34.6 S | 183 30.2 34.4 34.6
11/27/22 - 0400 33.0 22.1 13 -12.7 23.7 SW | 217 17.3 24.2 WSW | 238 30.2 34.2 30.6
11/27/22 - 0300 31.4 20.3 13 -14.2 22.5 SW | 224 16.6 23.9 WSW | 257 30.2 32.9 30.6
11/27/22 - 0200 31.7 19.9 11 -16.6 22.5 SW | 223 19.0 27.1 SW | 224 30.2 32.9 30.6
11/27/22 - 0100 31.6 19.2 10 -18.6 22.4 SW | 222 21.2 30.6 SSW | 204 30.2 32.9 30.6
11/27/22 - 0000 30.8 27.1 6 -29.1 21.4 SW | 226 3.6 16.9 SW | 232 24.6 36.2 49.3
11/26/22 - 2300 29.5 - 6 -29.1 20.5 SSE | 148 1.5 6.2 ENE | 78 24.6 36.2 49.3
11/26/22 - 2200 29.8 22.2 6 -29.9 20.7 ENE | 75 8.0 14.8 ENE | 78 24.6 36.2 49.3
11/26/22 - 2100 26.8 16.0 39 2.0 21.4 ENE | 69 12.5 21.0 E | 87 24.6 36.2 49.3
11/26/22 - 2000 25.6 14.4 71 17.2 23.1 ENE | 67 12.9 18.2 E | 81 24.6 36.2 49.3
11/26/22 - 1900 26.1 14.2 74 18.8 23.8 ENE | 75 14.6 19.6 ENE | 68 25.3 36.2 49.3
11/26/22 - 1800 27.1 16.6 68 17.8 24.2 ENE | 74 12.1 17.6 E | 94 26.4 36.2 49.3
11/26/22 - 1700 28.7 21.8 61 16.6 25.0 ENE | 74 6.7 11.8 E | 91 27.7 36.2 49.3
11/26/22 - 1600 29.5 - 62 18.1 25.9 ENE | 66 2.3 11.3 NNE | 30 28.5 36.2 49.3
11/26/22 - 1500 32.9 27.5 50 15.8 27.6 E | 87 5.7 15.7 WSW | 238 30.4 36.2 49.3
11/26/22 - 1400 35.4 26.6 41 13.8 28.7 SSW | 196 12.9 22.5 WSW | 241 31.3 36.1 49.3
11/26/22 - 1300 34.4 26.5 42 13.5 28.0 SSW | 197 10.6 22.6 SW | 235 31.3 35.6 49.3
11/26/22 - 1200 33.0 24.6 40 11.4 26.7 SW | 227 11.0 21.9 SW | 234 31.3 35.1 49.3
11/26/22 - 1100 32.5 23.0 33 6.2 25.5 SW | 234 12.9 24.0 SSW | 200 31.3 35.1 49.3
11/26/22 - 1000 31.9 18.9 26 1.0 24.3 SSW | 206 23.9 35.3 SSW | 198 31.3 35.1 49.3
11/26/22 - 0900 32.1 17.9 27 2.1 24.6 SSW | 194 29.0 41.0 SSW | 212 31.4 35.1 49.3
11/26/22 - 0800 31.6 16.6 24 -1.3 23.9 SSW | 195 32.8 47.9 SSW | 201 31.4 35.1 49.3
11/26/22 - 0700 32.2 17.1 25 0.5 24.4 SSW | 201 34.1 47.3 SSW | 202 31.7 35.1 49.3
11/26/22 - 0600 32.8 18.2 27 2.7 25.2 SSW | 200 32.8 41.4 SSW | 212 32.5 35.1 49.3
11/26/22 - 0500 33.3 18.4 26 1.9 25.3 SSW | 203 35.4 42.8 SSW | 196 32.6 35.1 49.3
11/26/22 - 0400 33.6 18.1 26 2.1 25.6 SSW | 204 39.8 49.3 SSW | 203 33.1 35.1 49.3
11/26/22 - 0300 33.9 17.9 21 -1.5 25.3 SSW | 203 43.4 49.3 SSW | 198 33.6 35.1 49.3
11/26/22 - 0200 34.3 18.9 21 -1.4 25.6 SSW | 206 40.6 46.8 SSW | 203 33.8 35.1 46.8
11/26/22 - 0100 34.3 19.0 24 1.1 25.9 SSW | 204 39.4 46.8 SW | 214 33.8 35.1 46.8
11/26/22 - 0000 34.5 18.6 26 3.5 26.4 SSW | 208 45.3 51.5 SSW | 212 33.9 41.5 55.6
11/25/22 - 2300 35.3 19.3 26 3.9 26.9 SSW | 202 48.2 55.6 SSW | 198 34.9 41.5 55.6
11/25/22 - 2200 35.4 19.9 30 6.7 27.4 SSW | 205 44.7 51.3 SSW | 205 35.0 41.5 51.3
11/25/22 - 2100 35.8 21.1 35 10.9 28.4 SSW | 211 39.9 46.5 SSW | 196 35.0 41.5 49.6
11/25/22 - 2000 36.7 24.0 34 10.9 28.9 SSW | 208 30.1 40.1 SW | 220 35.0 41.5 49.6
11/25/22 - 1900 36.7 23.9 36 12.2 29.2 SSW | 204 30.4 38.9 SSW | 211 35.0 41.5 49.6
11/25/22 - 1800 37.1 23.7 34 11.3 29.3 SSW | 193 35.0 40.6 SSW | 197 35.0 41.5 49.6
11/25/22 - 1700 37.7 25.2 33 10.9 29.6 S | 185 30.8 38.2 S | 183 35.0 41.5 49.6
11/25/22 - 1600 39.0 29.5 32 11.4 30.4 S | 187 18.8 29.5 S | 179 35.0 41.5 49.6
11/25/22 - 1500 39.8 29.5 30 11.1 30.8 SSW | 197 23.0 27.7 SSW | 193 35.0 41.5 49.6
11/25/22 - 1400 40.6 29.8 28 10.4 31.2 SSW | 193 26.6 31.9 SSW | 197 35.0 41.5 49.6
11/25/22 - 1300 40.0 28.0 27 8.9 30.6 SSW | 193 33.1 41.5 SSW | 200 35.0 41.5 49.6
11/25/22 - 1200 40.5 28.4 26 8.2 30.8 SSW | 196 34.4 41.7 SW | 229 35.0 41.5 49.6
11/25/22 - 1100 40.2 28.8 26 7.9 30.5 SSW | 192 29.5 35.1 S | 185 35.0 41.0 49.6
11/25/22 - 1000 39.6 27.3 24 5.5 29.8 SSW | 200 33.7 38.7 S | 170 35.0 40.3 49.6
11/25/22 - 0900 38.7 26.2 24 4.9 29.2 SSW | 206 33.0 38.8 SSW | 203 35.0 40.3 49.6
11/25/22 - 0800 36.7 22.7 26 4.9 27.9 SSW | 204 37.4 46.9 SW | 216 35.0 40.3 49.6
11/25/22 - 0700 37.0 22.5 25 4.2 28.0 SSW | 211 42.2 49.6 SSW | 213 35.2 40.3 49.6
11/25/22 - 0600 37.1 23.4 25 4.4 28.1 SSW | 208 36.5 40.1 SSW | 206 35.8 40.3 41.1
11/25/22 - 0500 37.1 23.2 24 3.9 28.0 SSW | 203 37.6 41.1 SSW | 200 35.8 40.3 41.1
11/25/22 - 0400 38.1 25.6 22 2.8 28.5 SSW | 202 31.4 38.4 SSW | 200 36.6 40.3 38.4
11/25/22 - 0300 38.8 26.6 21 2.1 28.8 SSW | 196 30.9 36.3 S | 191 36.6 40.3 36.3
11/25/22 - 0200 39.2 30.2 20 1.5 29.0 S | 182 17.2 27.8 S | 184 36.6 40.3 27.8
11/25/22 - 0100 38.4 32.3 20 0.5 28.4 SW | 234 8.6 18.2 SSW | 195 37.6 39.4 18.2
11/25/22 - 0000 36.3 - 21 -0.1 27.0 SSE | 168 0.2 1.0 WSW | 242 30.0 38.4 25.4
11/24/22 - 2300 35.2 - 21 -0.4 26.3 ENE | 74 0.2 2.0 NE | 42 30.0 36.5 25.4
Max 40.6 32.3 96 20.6 31.2 - 72.6 100.2 - 37.6 41.5 100.2
Avg 27.8 12.3 42 2.7 22.0 - 29.3 46.9 - - - -
Min 16.6 -8.6 6 -29.9 14.3 - 0.2 1.0 - 15.8 20.0 18.2

Last 365 Observations

Chair 1 Top

Daily Data | America/Los_Angeles
as of 12/1/22 10:30 PM PST
Date Daily Max Temp (°F) Time of Max Temp Daily Min Temp (°F) Time of Min Temp Temp (°F) Daily Max Wind (mph) Time of Max Wind Max Wind Dir (°) Wind Spd (mph) Dew Pt (°F) Max RH (%) Min RH (%) Max Wet Bulb Temp (°F) Min Wet Bulb Temp (°F) Wet Bulb (°F) WetB Hrs <28F (hrs) Hrs <= 32F (hrs) Min Wind Chill (°F) Wind Chill Time
11/30/22 27.4 1050 18.3 2234 23.0 61.7 2151 S | 187 19.3 4.1 88 18 21.6 16.8 18.8 24.0 24.0 -6.8 2151
11/29/22 36.5 1327 20.1 0019 28.8 83.2 0130 SW | 222 28.2 -6.3 33 11 26.6 14.2 21.5 24.0 21.1 -5.4 0036
11/28/22 27.7 0004 16.0 2027 19.1 100.2 1305 SSW | 200 61.0 7.2 97 12 21.5 13.6 16.7 23.6 23.6 -10.5 1904
11/27/22 36.1 1044 27.6 2316 31.8 71.9 2113 SW | 214 35.5 -8.4 40 6 26.7 19.7 23.3 24.0 13.2 6.1 2320
11/26/22 36.2 1408 24.6 1932 31.3 49.3 0231 SSW | 198 19.9 2.9 80 4 29.3 19.4 24.7 22.0 11.5 10.9 1927
11/25/22 41.5 1357 33.9 0001 37.9 55.6 2228 SSW | 198 32.4 6.8 38 18 32.1 25.9 29.0 4.7 0.0 17.4 2343
11/24/22 38.4 2350 30.0 0253 34.0 25.4 1049 NE | 46 10.8 -7.1 24 7 28.4 21.4 24.9 23.8 3.9 17.6 0638
11/23/22 37.9 0324 29.0 2233 33.3 24.5 2210 ENE | 62 10.8 -2.9 56 5 29.5 21.9 25.0 21.8 6.1 15.5 2210
11/22/22 42.0 1140 28.4 0417 34.5 20.1 1523 SSW | 200 6.5 -0.5 54 6 31.4 20.8 26.0 17.8 6.2 17.6 0405
11/21/22 39.6 1252 27.3 0101 32.3 31.6 0825 S | 180 - -13.6 24 7 28.4 19.7 23.1 23.9 14.4 12.0 0521
11/20/22 38.0 1242 27.3 0252 32.0 33.3 0432 S | 191 10.8 -11.3 23 7 27.7 20.1 23.1 24.0 15.3 11.8 0356
11/19/22 32.7 2319 15.6 0551 23.7 27.3 2352 S | 189 9.4 -14.5 34 7 23.1 11.4 17.1 24.0 23.5 -2.6 0544
11/18/22 29.1 0029 12.2 2054 20.8 25.5 1319 NNE | 33 9.4 3.5 94 19 22.4 11.4 17.1 24.0 24.0 -5.2 2049
11/17/22 41.5 1120 25.0 0001 33.2 44.7 1536 SSW | 205 16.0 -0.2 46 10 30.1 18.5 25.0 19.9 11.2 12.2 2333
11/16/22 32.9 1434 18.8 0143 26.2 26.3 0049 NNE | 26 10.3 -8.9 44 11 24.6 14.8 19.4 24.0 23.5 1.6 0143
11/15/22 23.0 2329 12.4 0622 18.3 29.7 2339 NNE | 28 13.3 7.3 96 24 18.9 12.1 15.8 - - -6.1 0633
11/14/22 32.9 1224 17.6 2026 24.9 44.7 1004 SSW | 197 13.0 2.5 72 22 25.6 15.2 19.7 24.0 23.0 4.4 2340
11/13/22 23.9 2154 10.2 0818 15.6 39.8 0009 SW | 219 14.9 3.9 94 25 18.3 10.0 13.3 24.0 24.0 -16.9 0613
11/12/22 23.3 1219 13.8 2124 18.8 62.4 0135 SSE | 160 26.8 9.1 97 36 19.4 13.5 16.5 24.0 24.0 -12.4 2114
11/11/22 26.0 1216 16.3 0001 21.3 64.9 2254 SW | 216 24.3 20.1 99 74 25.8 16.0 20.9 24.0 24.0 -3.0 2339
11/10/22 24.8 1411 8.3 0020 14.4 32.4 0230 SSW | 192 10.2 13.1 100 91 24.7 8.1 14.2 24.0 24.0 -13.9 0230
11/9/22 16.4 1406 8.5 2357 12.2 75.9 1002 SW | 235 - 10.6 96 91 16.2 8.4 12.0 24.0 24.0 -17.1 1001
11/8/22 21.6 1113 11.6 2040 15.6 82.9 1941 WSW | 255 20.1 14.4 98 93 21.4 11.4 15.4 24.0 24.0 -20.4 1944
11/7/22 28.6 0049 12.2 2100 21.6 80.1 0905 E | 86 18.9 21.0 100 93 28.5 12.0 21.3 22.8 24.0 -14.6 2028
11/6/22 31.0 1336 27.1 2143 29.7 64.9 1746 W | 269 17.1 29.7 100 100 30.9 26.9 29.6 3.6 24.0 5.9 2125
11/5/22 41.1 0101 29.2 0047 34.8 77.0 1249 SW | 220 40.6 18.2 100 19 34.1 27.2 29.8 4.1 5.4 9.0 2045
11/4/22 42.8 2312 27.3 0653 35.2 44.4 0054 WSW | 253 14.3 15.7 94 15 32.0 23.2 29.1 8.2 8.3 12.6 0128
11/3/22 27.9 0058 8.5 0657 12.5 32.1 2344 NNE | 27 8.6 7.4 92 10 23.2 8.3 11.6 24.0 24.0 -7.0 0632
11/2/22 14.4 1626 11.8 2046 13.5 72.6 0606 W | 259 18.2 11.6 94 91 14.1 11.5 13.1 24.0 24.0 -15.9 0606
11/1/22 31.2 0101 13.7 0055 24.4 61.5 1954 W | 272 19.3 12.9 95 42 25.4 13.3 21.2 24.0 24.0 -12.8 2239
10/31/22 42.7 0941 31.0 0054 37.6 48.9 1337 S | 175 20.1 10.2 43 10 32.4 25.3 29.4 5.6 1.3 15.5 0040
10/30/22 44.2 1544 29.8 0431 37.4 19.7 1252 NNE | 26 6.6 9.6 66 19 32.8 25.5 29.2 7.4 3.4 21.2 0431
10/29/22 45.5 1440 29.1 0441 35.1 17.7 0840 NE | 48 6.0 10.0 56 25 34.6 23.5 27.7 15.5 8.6 18.5 0714
10/28/22 40.1 1416 29.7 0739 33.8 55.3 1002 SSW | 211 12.1 12.8 56 32 31.9 24.4 27.5 14.9 7.8 11.1 0757
10/27/22 38.2 1359 26.2 0637 31.9 50.9 0004 SSW | 213 7.9 10.8 72 28 30.3 21.3 25.9 19.1 10.8 11.5 0137
10/26/22 35.6 1437 25.9 2304 30.5 65.3 0642 SW | 229 31.2 -0.9 72 7 28.7 20.2 23.8 23.2 17.6 8.0 0642
10/25/22 40.1 1259 27.7 2310 34.6 62.1 1532 SSW | 201 32.0 14.3 80 7 33.6 21.0 28.6 8.0 7.1 7.2 2304
10/24/22 44.0 1419 23.8 0122 37.8 51.9 2325 SW | 219 15.2 7.2 55 3 34.5 16.8 29.4 7.8 2.0 12.0 0101
10/23/22 25.6 1441 15.1 2301 19.4 68.2 0532 SSW | 201 17.2 13.0 97 6 23.1 13.8 17.8 24.0 24.0 -9.8 0621
10/22/22 38.2 0101 16.4 0057 24.1 115.8 1553 SW | 236 26.0 23.3 100 38 30.6 16.0 23.7 9.3 15.5 -1.2 1807
10/21/22 51.8 1235 36.2 0006 43.0 82.9 2122 WSW | 250 20.7 21.0 64 17 39.0 30.6 34.9 0.0 0.0 19.0 2308
10/20/22 53.4 1407 38.8 0616 44.2 32.9 1857 S | 179 - 14.8 52 16 39.1 30.3 34.2 0.0 0.0 33.1 1909
10/19/22 50.9 1507 41.0 0548 45.2 27.2 1126 ENE | 62 10.3 14.5 36 20 37.6 32.7 34.6 0.0 0.0 34.5 0730
10/18/22 50.4 1505 38.6 0641 44.7 28.3 1557 E | 80 10.5 16.9 42 24 38.0 31.2 34.9 0.0 0.0 32.0 0224
10/17/22 53.8 1429 39.7 0514 45.4 36.0 1720 SW | 223 9.2 15.5 43 23 40.1 30.6 35.0 0.0 0.0 32.1 0057
10/16/22 56.8 1403 40.8 0512 47.0 31.9 1642 SW | 216 - 12.6 54 15 42.3 30.9 35.4 0.0 0.0 39.0 0656
10/15/22 53.6 1423 41.2 0504 46.9 22.1 1310 ENE | 59 5.1 10.8 30 15 38.2 31.7 34.9 0.0 0.0 38.9 0515
10/14/22 54.2 1504 41.6 0653 47.3 27.4 1151 ENE | 74 7.9 12.3 36 13 39.6 32.6 35.4 0.0 0.0 34.7 0607
10/13/22 54.1 1411 41.6 0532 46.8 24.9 1434 NE | 50 8.4 15.8 36 20 39.7 32.9 35.8 0.0 0.0 36.0 0345
10/12/22 54.4 1459 41.4 0355 46.8 24.6 1501 E | 79 6.8 15.7 37 18 39.7 33.0 35.8 0.0 0.0 35.8 0246
10/11/22 52.7 1244 40.3 0203 46.6 22.1 1249 ENE | 59 4.1 19.1 45 23 40.3 33.2 36.4 0.0 0.0 38.0 0043
10/10/22 52.8 1241 39.7 0652 44.4 40.7 1417 SE | 128 - 23.8 60 25 40.6 33.6 36.5 0.0 0.0 30.0 1926
10/9/22 54.4 1442 42.9 2107 47.6 34.1 1742 SW | 225 - 19.7 51 24 41.0 33.3 37.2 0.0 0.0 34.9 2028
10/8/22 58.1 1323 43.5 0503 49.4 38.7 1558 WSW | 256 - 18.0 44 18 42.3 33.6 37.7 0.0 0.0 39.2 1943
10/7/22 56.0 1446 42.6 0640 49.2 23.0 1816 S | 179 - 18.5 43 17 41.8 34.2 37.6 0.0 0.0 42.6 0640
10/6/22 60.4 1446 43.2 0333 49.7 41.0 1816 SW | 215 - 22.0 50 17 43.6 34.8 38.8 0.0 0.0 38.6 2000
10/5/22 59.1 1322 42.0 0650 49.8 43.6 1759 SSW | 208 - 23.6 48 23 43.7 34.7 39.2 0.0 0.0 39.8 1858
10/4/22 59.8 1413 42.9 0105 50.7 50.5 0530 SW | 228 19.5 22.8 45 19 43.9 34.4 39.5 0.0 0.0 35.4 0617
10/3/22 56.0 1308 39.6 0646 47.8 19.5 1924 NNE | 30 4.7 21.6 54 18 41.1 33.9 37.7 0.0 0.0 38.3 0403
10/2/22 56.4 1305 43.5 0042 48.9 50.0 0324 SW | 220 22.4 20.6 51 18 42.5 34.3 38.1 0.0 0.0 32.4 0318
10/1/22 56.6 1410 42.7 0244 49.3 49.8 1613 WSW | 240 - 22.4 50 22 42.2 35.0 38.7 0.0 0.0 34.6 0052
9/30/22 61.1 1441 43.6 0051 52.4 34.8 1559 SSW | 212 11.2 19.4 47 12 43.7 35.2 39.6 0.0 0.0 38.9 0103
9/29/22 56.5 1429 44.7 0442 51.0 73.2 0859 S | 184 30.3 23.2 49 19 42.5 36.4 39.8 0.0 0.0 32.0 0720
9/28/22 55.3 1210 45.8 0059 48.9 46.9 1207 SSE | 149 - 26.7 49 28 42.4 37.9 39.7 0.0 0.0 39.1 0306
9/27/22 57.9 1230 48.1 0037 52.3 41.8 1740 SE | 133 11.7 29.0 58 29 44.6 38.9 42.2 0.0 0.0 40.4 0049
9/26/22 63.2 1320 49.4 0324 55.0 26.1 1529 SE | 131 7.3 33.0 62 25 47.0 42.2 44.9 0.0 0.0 46.4 0319
9/25/22 63.2 1341 46.8 0658 53.7 24.4 1650 SE | 146 - 31.9 66 18 48.5 38.1 43.9 0.0 0.0 43.5 0702
9/24/22 60.4 1433 43.5 0238 51.0 21.1 1825 ESE | 122 4.4 25.0 50 26 46.5 34.4 40.3 0.0 0.0 38.2 0238
9/23/22 58.5 1359 37.5 0616 46.8 15.6 1743 SE | 132 - 22.1 61 16 42.9 32.4 37.3 0.0 0.0 34.5 0109
9/22/22 54.0 1507 33.3 0101 44.3 26.1 0308 SE | 136 4.8 16.9 84 15 40.2 28.4 34.8 0.0 0.0 24.0 0101
9/21/22 40.1 1220 31.2 0705 34.9 40.2 1549 SSE | 150 9.2 30.8 100 66 36.6 31.1 33.3 0.0 0.0 17.9 0625
9/20/22 38.4 1613 32.0 0727 35.0 31.5 0401 S | 176 5.9 33.6 100 69 37.1 31.9 34.4 0.0 0.0 19.7 0401
9/19/22 46.8 1435 33.0 0349 38.3 25.4 2023 SSE | 154 5.2 30.1 98 57 40.8 30.8 35.0 0.0 0.0 22.9 0717
9/18/22 39.1 1201 31.9 0650 34.7 28.5 0831 SSW | 198 6.4 27.1 99 61 34.7 29.3 31.9 0.0 0.0 19.9 0831
9/17/22 46.6 1306 33.7 0052 40.6 42.7 1455 SSE | 148 11.7 22.4 98 21 37.7 30.5 34.2 0.0 0.0 20.0 0024
9/16/22 55.4 1216 40.1 0511 45.9 28.2 1544 S | 175 6.9 20.8 63 14 42.1 31.6 36.7 0.0 0.0 32.9 0052
9/15/22 51.0 1321 40.3 0647 45.5 25.1 1638 SE | 125 5.7 19.4 85 12 40.8 30.7 36.2 0.0 0.0 33.0 2046
9/14/22 48.4 1221 37.8 0637 42.6 29.1 1501 SSE | 162 6.4 31.5 82 46 42.4 33.3 38.0 0.0 0.0 28.5 0651
9/13/22 45.6 1545 40.4 2123 42.7 41.8 1701 SSE | 157 18.3 37.8 100 54 44.0 34.8 40.8 0.0 0.0 29.7 0714
9/12/22 59.6 1238 43.0 0040 48.6 22.3 1333 SSE | 159 6.1 41.2 97 46 49.6 42.3 45.2 0.0 0.0 34.6 0051
9/11/22 57.4 1446 46.6 2255 51.0 14.8 1403 N | 9 3.0 39.7 87 40 50.8 43.2 45.8 0.0 0.0 43.3 0024
9/10/22 59.4 1210 42.3 1942 51.4 25.8 1534 NNW | 347 4.6 39.6 100 32 52.8 42.2 46.0 0.0 0.0 36.2 1952
9/9/22 68.8 1450 55.5 0045 60.3 23.3 1716 SE | 143 5.6 31.4 48 20 51.4 44.1 46.5 0.0 0.0 - -
9/8/22 72.9 1407 56.4 2038 61.4 30.1 1852 S | 189 5.3 31.7 42 20 51.1 44.5 47.1 0.0 0.0 - -
9/7/22 73.8 1430 56.4 1926 63.4 35.2 1826 SSW | 213 5.7 32.3 49 20 52.6 45.1 48.0 0.0 0.0 - -
9/6/22 74.4 1451 58.6 0217 65.4 23.6 1636 SSE | 163 5.6 31.4 43 16 55.6 44.7 48.6 0.0 0.0 - -
9/5/22 72.0 1303 59.4 0532 64.5 21.4 1414 N | 4 5.3 30.8 38 15 51.6 45.4 48.1 0.0 0.0 - -
9/4/22 71.1 1207 60.6 0154 64.8 19.5 1640 SE | 138 5.2 33.6 41 22 52.6 46.2 49.1 0.0 0.0 - -
9/3/22 72.7 1232 60.0 0333 65.0 32.0 1524 SE | 137 9.0 29.7 33 20 51.2 45.4 47.8 0.0 0.0 - -
9/2/22 71.5 1413 57.1 0626 64.0 29.4 1524 SE | 140 9.0 28.4 35 19 49.8 43.6 47.0 0.0 0.0 - -
9/1/22 71.4 1429 57.0 0730 59.7 23.6 1916 NE | 37 6.5 30.5 36 20 50.4 45.5 46.0 0.0 0.0 -58.4 1246
Max 74.4 - 60.6 - 65.4 115.8 - - 61.0 41.2 100 100 55.6 46.2 49.1 24.0 24.0 46.4 -
Avg - - - - 39.6 - - - 13.8 16.7 - - - - 31.8 - 6.9 - -
Min 14.4 - 8.3 - 12.2 14.8 - - 3.0 -14.5 23 3 14.1 8.1 11.6 0.0 0.0 -58.4 -
Total - - - - - - - - - - - - - - - - 620.2 - -